Time;durP1;ratioP1;P1;durP2;ratioP2;P2;SDS_P1;SDS_P2;PMS_P1;PMS_P2;Temp;Humidity;BMP_temperature;BMP_pressure;BME280_temperature;BME280_humidity;BME280_pressure;Samples;Min_cycle;Max_cycle;Signal;HPM_P1;HPM_P2
2022/10/13 00:00:14;;;;;;;0.60;0.60;;;9.60;99.90;;;;;;4965981;28;20678;-81
2022/10/13 00:02:40;;;;;;;0.60;0.60;;;9.60;99.90;;;;;;4974968;28;20055;-80
2022/10/13 00:05:07;;;;;;;0.50;0.50;;;9.50;99.90;;;;;;4955537;28;20424;-81
2022/10/13 00:07:32;;;;;;;0.50;0.50;;;9.50;99.90;;;;;;4946358;28;20102;-82
2022/10/13 00:09:58;;;;;;;0.60;0.60;;;9.50;99.90;;;;;;4979852;28;22089;-81
2022/10/13 00:12:24;;;;;;;0.50;0.50;;;9.50;99.90;;;;;;4979265;28;20044;-81
2022/10/13 00:14:50;;;;;;;0.60;0.60;;;9.60;99.90;;;;;;4980337;28;20067;-80
2022/10/13 00:17:16;;;;;;;0.60;0.60;;;9.60;99.90;;;;;;4941249;28;20063;-80
2022/10/13 00:19:41;;;;;;;0.60;0.60;;;9.50;99.90;;;;;;4987120;28;20063;-81
2022/10/13 00:22:07;;;;;;;0.60;0.60;;;9.60;99.90;;;;;;4958162;28;20466;-81
2022/10/13 00:24:33;;;;;;;0.60;0.60;;;9.60;99.90;;;;;;4940558;28;20116;-81
2022/10/13 00:26:59;;;;;;;0.50;0.50;;;9.60;99.90;;;;;;4945552;28;20055;-81
2022/10/13 00:29:25;;;;;;;0.50;0.50;;;9.60;99.90;;;;;;4976998;28;20412;-81
2022/10/13 00:31:51;;;;;;;0.55;0.55;;;9.70;99.90;;;;;;4957926;28;20441;-81
2022/10/13 00:34:16;;;;;;;0.60;0.60;;;9.70;99.90;;;;;;4956021;28;21022;-81
2022/10/13 00:36:42;;;;;;;0.52;0.52;;;9.70;99.90;;;;;;4971113;28;20048;-80
2022/10/13 00:39:08;;;;;;;0.60;0.60;;;9.70;99.90;;;;;;4961960;28;20052;-80
2022/10/13 00:41:34;;;;;;;0.60;0.60;;;9.70;99.90;;;;;;4963140;28;20445;-80
2022/10/13 00:44:41;;;;;;;0.60;0.60;;;9.80;99.90;;;;;;4979726;28;20059;-81
2022/10/13 00:47:08;;;;;;;0.60;0.60;;;9.70;99.90;;;;;;4990627;28;20044;-80
2022/10/13 00:49:34;;;;;;;0.50;0.50;;;9.80;99.90;;;;;;4996981;28;20040;-80
2022/10/13 00:52:00;;;;;;;0.60;0.60;;;9.80;99.90;;;;;;5026160;28;20426;-80
2022/10/13 00:54:28;;;;;;;0.60;0.60;;;9.80;99.90;;;;;;4994627;28;20086;-80
2022/10/13 00:56:55;;;;;;;0.50;0.50;;;9.80;99.90;;;;;;4997000;28;20043;-80
2022/10/13 00:59:27;;;;;;;0.50;0.50;;;9.90;99.90;;;;;;4975639;28;20257;-80
2022/10/13 01:01:54;;;;;;;0.57;0.57;;;9.80;99.90;;;;;;4955477;28;20204;-81
2022/10/13 01:04:24;;;;;;;0.50;0.50;;;9.90;99.90;;;;;;4975679;28;20552;-80
2022/10/13 01:06:51;;;;;;;0.50;0.50;;;9.90;99.90;;;;;;4996021;28;20048;-80
2022/10/13 01:09:17;;;;;;;0.50;0.50;;;9.90;99.90;;;;;;4955421;28;20044;-80
2022/10/13 01:12:22;;;;;;;0.50;0.50;;;9.90;99.90;;;;;;4962175;28;20445;-80
2022/10/13 01:14:52;;;;;;;;;;;9.90;99.90;;;;;;4991913;28;20056;-81
2022/10/13 01:18:12;;;;;;;0.60;0.60;;;9.90;99.90;;;;;;4970989;28;19924;-80
2022/10/13 01:21:21;;;;;;;0.60;0.60;;;9.90;99.90;;;;;;4913556;28;20513;-80
2022/10/13 01:24:09;;;;;;;0.60;0.60;;;9.90;99.90;;;;;;4881129;28;20112;-80
2022/10/13 01:27:00;;;;;;;0.52;0.52;;;9.90;99.90;;;;;;5000480;28;20149;-80
2022/10/13 01:29:49;;;;;;;0.50;0.50;;;9.80;99.90;;;;;;4975487;28;20056;-80
2022/10/13 01:32:42;;;;;;;0.60;0.60;;;9.70;99.90;;;;;;4996620;28;20056;-80
2022/10/13 01:35:25;;;;;;;0.50;0.50;;;9.70;99.90;;;;;;4996255;28;20385;-80
2022/10/13 01:38:06;;;;;;;0.60;0.60;;;9.50;99.90;;;;;;4991934;28;20201;-80
2022/10/13 01:40:47;;;;;;;0.60;0.60;;;9.40;99.90;;;;;;4995624;28;20055;-79
2022/10/13 01:43:29;;;;;;;0.50;0.50;;;9.40;99.90;;;;;;4961824;28;20109;-79
2022/10/13 01:45:55;;;;;;;0.55;0.55;;;9.60;99.90;;;;;;4990997;28;20048;-81
2022/10/13 01:48:23;;;;;;;0.50;0.50;;;9.60;99.90;;;;;;4975390;28;20051;-80
2022/10/13 01:50:50;;;;;;;0.50;0.50;;;9.60;99.90;;;;;;4980105;28;20052;-80
2022/10/13 01:53:18;;;;;;;0.50;0.50;;;9.60;99.90;;;;;;4953824;28;20823;-79
2022/10/13 01:55:55;;;;;;;0.50;0.50;;;9.80;99.90;;;;;;4975395;28;20067;-80
2022/10/13 01:58:24;;;;;;;0.60;0.60;;;9.80;99.90;;;;;;4998060;28;20438;-80
2022/10/13 02:01:09;;;;;;;0.50;0.50;;;9.90;99.90;;;;;;4974393;28;21422;-81
2022/10/13 02:03:53;;;;;;;0.60;0.60;;;9.90;99.90;;;;;;4996099;28;20960;-82
2022/10/13 02:06:25;;;;;;;0.60;0.60;;;9.90;99.90;;;;;;4995965;28;20069;-81
2022/10/13 02:09:31;;;;;;;0.50;0.50;;;10.00;99.90;;;;;;4970972;28;20383;-83
2022/10/13 02:12:19;;;;;;;0.50;0.50;;;10.00;99.90;;;;;;4976438;28;20158;-82
2022/10/13 02:14:46;;;;;;;0.60;0.60;;;10.10;99.90;;;;;;4985283;28;20535;-82
2022/10/13 02:17:14;;;;;;;0.50;0.50;;;10.20;99.90;;;;;;4978598;28;20117;-81
2022/10/13 02:19:39;;;;;;;0.50;0.50;;;10.20;99.90;;;;;;5006274;28;20576;-81
2022/10/13 02:22:07;;;;;;;0.60;0.60;;;10.30;99.90;;;;;;4986323;28;20074;-81
2022/10/13 02:24:35;;;;;;;0.50;0.50;;;10.30;99.90;;;;;;4969006;28;20478;-83
2022/10/13 02:27:04;;;;;;;0.50;0.50;;;10.30;99.90;;;;;;5016977;28;20634;-81
2022/10/13 02:29:30;;;;;;;0.55;0.55;;;10.30;99.90;;;;;;4984771;28;20059;-81
2022/10/13 02:31:56;;;;;;;0.50;0.50;;;10.30;99.90;;;;;;5008677;28;20048;-82
2022/10/13 02:34:37;;;;;;;0.60;0.60;;;10.40;99.90;;;;;;4968644;28;20051;-82
2022/10/13 02:37:02;;;;;;;0.50;0.50;;;10.40;99.90;;;;;;5015244;28;20414;-82
2022/10/13 02:39:28;;;;;;;0.60;0.60;;;10.40;99.90;;;;;;5002346;28;20405;-83
2022/10/13 02:41:54;;;;;;;0.50;0.50;;;10.50;99.90;;;;;;4975118;28;20070;-83
2022/10/13 02:44:20;;;;;;;0.50;0.50;;;10.50;99.90;;;;;;4993459;28;20050;-81
2022/10/13 02:46:45;;;;;;;0.50;0.50;;;10.50;99.90;;;;;;4989573;28;20062;-82
2022/10/13 02:49:17;;;;;;;0.50;0.50;;;10.60;99.90;;;;;;5016023;28;20375;-81
2022/10/13 02:51:48;;;;;;;0.50;0.50;;;10.60;99.90;;;;;;4989705;28;20159;-81
2022/10/13 02:54:14;;;;;;;0.50;0.50;;;10.60;99.90;;;;;;5011166;28;20108;-82
2022/10/13 02:56:40;;;;;;;0.50;0.50;;;10.60;99.90;;;;;;4983874;28;20350;-82
2022/10/13 02:59:06;;;;;;;0.50;0.50;;;10.60;99.90;;;;;;4993181;28;20558;-80
2022/10/13 03:01:32;;;;;;;0.60;0.60;;;10.60;99.90;;;;;;4993198;28;20124;-81
2022/10/13 03:04:03;;;;;;;0.52;0.52;;;10.60;99.90;;;;;;4980591;28;20086;-80
2022/10/13 03:06:29;;;;;;;0.50;0.50;;;10.70;99.90;;;;;;4989579;28;20091;-81
2022/10/13 03:08:55;;;;;;;0.60;0.60;;;10.70;99.90;;;;;;4965040;28;20201;-81
2022/10/13 03:11:21;;;;;;;0.50;0.50;;;10.70;99.90;;;;;;4978741;28;20588;-82
2022/10/13 03:13:47;;;;;;;0.50;0.50;;;10.70;99.90;;;;;;5003627;28;20531;-81
2022/10/13 03:16:13;;;;;;;0.50;0.50;;;10.70;99.90;;;;;;4989964;28;20048;-82
2022/10/13 03:18:38;;;;;;;0.50;0.50;;;10.70;99.90;;;;;;4985155;28;20491;-81
2022/10/13 03:21:06;;;;;;;0.60;0.60;;;10.70;99.90;;;;;;4968709;28;20883;-82
2022/10/13 03:23:32;;;;;;;0.50;0.50;;;10.80;99.90;;;;;;4981254;28;20055;-82
2022/10/13 03:25:58;;;;;;;0.50;0.50;;;10.80;99.90;;;;;;5001155;28;20056;-82
2022/10/13 03:28:24;;;;;;;0.50;0.50;;;10.80;99.90;;;;;;4976523;28;20413;-81
2022/10/13 03:30:58;;;;;;;0.50;0.50;;;10.80;99.90;;;;;;4995582;28;20086;-81
2022/10/13 03:33:24;;;;;;;0.50;0.50;;;10.80;99.90;;;;;;4965579;28;20056;-80
2022/10/13 03:35:50;;;;;;;0.50;0.50;;;10.80;99.90;;;;;;4991697;28;20406;-82
2022/10/13 03:38:15;;;;;;;0.50;0.50;;;10.90;99.90;;;;;;4990192;28;20055;-81
2022/10/13 03:40:41;;;;;;;0.50;0.50;;;10.90;99.90;;;;;;4988657;28;20846;-81
2022/10/13 03:43:07;;;;;;;0.50;0.50;;;10.90;99.90;;;;;;4983853;28;20134;-81
2022/10/13 03:45:33;;;;;;;0.50;0.50;;;10.90;99.90;;;;;;5001318;28;20695;-81
2022/10/13 03:47:59;;;;;;;0.50;0.50;;;11.00;99.90;;;;;;4988791;28;20055;-83
2022/10/13 03:50:25;;;;;;;0.50;0.50;;;10.90;99.90;;;;;;4963547;28;20254;-82
2022/10/13 03:52:51;;;;;;;0.50;0.50;;;10.90;99.90;;;;;;4985122;28;20243;-81
2022/10/13 03:55:16;;;;;;;0.50;0.50;;;10.90;99.90;;;;;;4967773;28;20489;-81
2022/10/13 03:57:42;;;;;;;0.50;0.50;;;11.00;99.90;;;;;;5007299;28;20048;-81
2022/10/13 04:00:09;;;;;;;0.50;0.50;;;11.00;99.90;;;;;;4963052;28;20043;-82
2022/10/13 04:02:35;;;;;;;0.50;0.50;;;11.10;99.90;;;;;;4985410;28;20054;-81
2022/10/13 04:05:01;;;;;;;0.50;0.50;;;11.10;99.90;;;;;;4980144;28;20036;-80
2022/10/13 04:07:27;;;;;;;0.50;0.50;;;11.10;99.90;;;;;;5000450;28;20036;-81
2022/10/13 04:09:57;;;;;;;0.50;0.50;;;11.10;99.90;;;;;;4972233;28;20040;-81
2022/10/13 04:12:22;;;;;;;0.50;0.50;;;11.00;99.90;;;;;;5002930;28;20779;-81
2022/10/13 04:14:49;;;;;;;0.50;0.50;;;11.00;99.90;;;;;;4947162;28;20113;-80
2022/10/13 04:17:15;;;;;;;0.50;0.50;;;11.00;99.90;;;;;;4967569;28;20054;-81
2022/10/13 04:19:41;;;;;;;0.50;0.50;;;11.00;99.90;;;;;;4984987;28;20048;-81
2022/10/13 04:22:06;;;;;;;0.50;0.50;;;11.00;99.90;;;;;;4982864;28;20044;-81
2022/10/13 04:24:32;;;;;;;0.50;0.50;;;11.00;99.90;;;;;;4966368;28;20048;-81
2022/10/13 04:26:59;;;;;;;0.50;0.50;;;11.00;99.90;;;;;;4998988;28;20507;-82
2022/10/13 04:29:25;;;;;;;0.60;0.60;;;11.00;99.90;;;;;;4966776;28;20054;-80
2022/10/13 04:31:51;;;;;;;0.50;0.50;;;11.00;99.90;;;;;;4979408;28;20071;-82
2022/10/13 04:34:17;;;;;;;0.50;0.50;;;11.10;99.90;;;;;;4984081;28;20921;-80
2022/10/13 04:36:43;;;;;;;0.50;0.50;;;11.10;99.90;;;;;;4961488;28;20610;-80
2022/10/13 04:39:08;;;;;;;0.50;0.50;;;11.10;99.90;;;;;;4981914;28;20063;-80
2022/10/13 04:41:34;;;;;;;0.60;0.60;;;11.10;99.90;;;;;;4978385;28;20047;-79
2022/10/13 04:44:01;;;;;;;0.50;0.50;;;11.10;99.90;;;;;;4983273;28;20086;-81
2022/10/13 04:46:27;;;;;;;0.50;0.50;;;11.10;99.90;;;;;;4945484;28;20040;-81
2022/10/13 04:48:54;;;;;;;0.50;0.50;;;11.10;99.90;;;;;;4984862;28;20058;-81
2022/10/13 04:51:22;;;;;;;0.50;0.50;;;11.10;99.90;;;;;;4963971;28;20052;-82
2022/10/13 04:53:59;;;;;;;0.50;0.50;;;11.10;99.90;;;;;;4989686;28;20839;-82
2022/10/13 04:56:26;;;;;;;0.50;0.50;;;11.10;99.90;;;;;;4973199;28;20056;-81
2022/10/13 04:58:52;;;;;;;0.57;0.57;;;11.10;99.90;;;;;;4959591;28;20366;-81
2022/10/13 05:01:20;;;;;;;0.50;0.50;;;11.20;99.90;;;;;;4966044;28;20530;-81
2022/10/13 05:03:47;;;;;;;0.60;0.60;;;11.20;99.90;;;;;;4958660;28;20622;-82
2022/10/13 05:06:17;;;;;;;0.50;0.50;;;11.20;99.90;;;;;;4964671;28;20764;-81
2022/10/13 05:08:43;;;;;;;0.50;0.50;;;11.30;99.90;;;;;;4983937;28;20052;-82
2022/10/13 05:11:09;;;;;;;0.50;0.50;;;11.30;99.90;;;;;;4959245;28;20050;-82
2022/10/13 05:13:38;;;;;;;0.50;0.50;;;11.30;99.90;;;;;;4943129;28;20071;-81
2022/10/13 05:16:09;;;;;;;0.50;0.50;;;11.40;99.90;;;;;;4986604;28;20639;-81
2022/10/13 05:18:36;;;;;;;0.50;0.50;;;11.30;99.90;;;;;;4999367;28;20664;-81
2022/10/13 05:21:10;;;;;;;0.50;0.50;;;11.40;99.90;;;;;;5001859;28;20418;-83
2022/10/13 05:23:36;;;;;;;0.50;0.50;;;11.30;99.90;;;;;;4998957;28;20052;-81
2022/10/13 05:26:05;;;;;;;0.50;0.50;;;11.30;99.90;;;;;;5001535;28;20044;-81
2022/10/13 05:28:31;;;;;;;0.50;0.50;;;11.30;99.90;;;;;;4977563;28;20211;-82
2022/10/13 05:31:08;;;;;;;0.50;0.50;;;11.40;99.90;;;;;;4984800;28;20044;-82
2022/10/13 05:33:34;;;;;;;0.50;0.50;;;11.30;99.90;;;;;;4984952;28;20220;-80
2022/10/13 05:36:25;;;;;;;0.50;0.50;;;11.40;99.90;;;;;;4980182;28;20750;-80
2022/10/13 05:38:53;;;;;;;0.50;0.50;;;11.40;99.90;;;;;;5000717;28;20115;-82
2022/10/13 05:41:20;;;;;;;0.50;0.50;;;11.40;99.90;;;;;;4981158;28;20609;-81
2022/10/13 05:43:46;;;;;;;0.50;0.50;;;11.40;99.90;;;;;;5001566;28;20475;-83
2022/10/13 05:46:12;;;;;;;0.60;0.60;;;11.30;99.90;;;;;;4994387;28;20105;-82
2022/10/13 05:48:38;;;;;;;0.50;0.50;;;11.30;99.90;;;;;;4975638;28;20447;-82
2022/10/13 05:51:11;;;;;;;0.50;0.50;;;11.30;99.90;;;;;;4993353;28;20354;-82
2022/10/13 05:53:39;;;;;;;0.50;0.50;;;11.30;99.90;;;;;;4993222;28;20059;-82
2022/10/13 05:56:12;;;;;;;0.50;0.50;;;11.30;99.90;;;;;;5006630;28;20362;-82
2022/10/13 05:58:46;;;;;;;0.50;0.50;;;11.30;99.90;;;;;;4990338;28;20426;-82
2022/10/13 06:01:16;;;;;;;0.50;0.50;;;11.30;99.90;;;;;;4994783;28;20040;-83
2022/10/13 06:03:44;;;;;;;0.50;0.50;;;11.30;99.90;;;;;;4968040;28;20162;-81
2022/10/13 06:06:10;;;;;;;0.50;0.50;;;11.30;99.90;;;;;;4939056;28;21010;-81
2022/10/13 06:08:37;;;;;;;0.60;0.60;;;11.30;99.90;;;;;;4985655;28;20318;-82
2022/10/13 06:11:04;;;;;;;0.50;0.50;;;11.30;99.90;;;;;;4972381;28;20456;-81
2022/10/13 06:13:30;;;;;;;0.50;0.50;;;11.30;99.90;;;;;;4989905;28;20457;-82
2022/10/13 06:15:55;;;;;;;0.50;0.50;;;11.30;99.90;;;;;;4970835;28;20869;-82
2022/10/13 06:18:21;;;;;;;0.50;0.50;;;11.30;99.90;;;;;;4991610;28;20806;-81
2022/10/13 06:20:47;;;;;;;0.50;0.50;;;11.30;99.90;;;;;;4993160;28;20570;-81
2022/10/13 06:23:13;;;;;;;0.50;0.50;;;11.20;99.90;;;;;;4990643;28;20044;-84
2022/10/13 06:25:46;;;;;;;0.50;0.50;;;11.30;99.90;;;;;;4991899;28;20052;-80
2022/10/13 06:28:12;;;;;;;0.50;0.50;;;11.30;99.90;;;;;;4992438;28;20147;-81
2022/10/13 06:30:38;;;;;;;0.50;0.50;;;11.30;99.90;;;;;;4967230;28;20062;-80
2022/10/13 06:33:04;;;;;;;0.50;0.50;;;11.40;99.90;;;;;;4980509;28;20501;-82
2022/10/13 06:35:47;;;;;;;0.50;0.50;;;11.40;99.90;;;;;;4990542;28;20058;-85
2022/10/13 06:38:13;;;;;;;0.50;0.50;;;11.40;99.90;;;;;;4991351;28;20052;-81
2022/10/13 06:40:38;;;;;;;0.50;0.50;;;11.40;99.90;;;;;;5006159;28;20236;-78
2022/10/13 06:43:04;;;;;;;0.55;0.55;;;11.50;99.90;;;;;;4992360;28;20547;-81
2022/10/13 06:45:30;;;;;;;0.60;0.60;;;11.50;99.90;;;;;;4984895;28;20051;-82
2022/10/13 06:47:56;;;;;;;0.50;0.50;;;11.50;99.90;;;;;;4969524;28;20048;-82
2022/10/13 06:50:23;;;;;;;0.50;0.50;;;11.50;99.90;;;;;;4988191;28;20052;-84
2022/10/13 06:52:49;;;;;;;0.50;0.50;;;11.60;99.90;;;;;;5002041;28;20043;-83
2022/10/13 06:55:17;;;;;;;0.50;0.50;;;11.60;99.90;;;;;;4998151;28;20107;-82
2022/10/13 06:57:43;;;;;;;0.50;0.50;;;11.60;99.90;;;;;;4975944;28;20473;-82
2022/10/13 07:00:10;;;;;;;0.50;0.50;;;11.70;99.90;;;;;;5006731;28;20054;-81
2022/10/13 07:02:36;;;;;;;0.50;0.50;;;11.70;99.90;;;;;;4989306;28;20055;-82
2022/10/13 07:05:02;;;;;;;0.50;0.50;;;11.80;99.90;;;;;;4971588;28;20117;-82
2022/10/13 07:07:31;;;;;;;0.52;0.52;;;11.80;99.90;;;;;;4995893;28;20045;-83
2022/10/13 07:09:57;;;;;;;0.50;0.50;;;11.90;99.90;;;;;;4943425;28;20277;-84
2022/10/13 07:12:23;;;;;;;0.50;0.50;;;11.90;99.90;;;;;;4992247;28;20054;-83
2022/10/13 07:14:49;;;;;;;0.50;0.50;;;12.00;99.90;;;;;;4960369;28;20048;-81
2022/10/13 07:17:15;;;;;;;0.50;0.50;;;12.00;99.90;;;;;;4985565;28;20056;-81
2022/10/13 07:19:41;;;;;;;0.55;0.55;;;12.00;99.90;;;;;;4974340;28;20413;-82
2022/10/13 07:22:07;;;;;;;0.50;0.50;;;12.10;99.90;;;;;;4986701;28;20857;-78
2022/10/13 07:24:32;;;;;;;0.50;0.50;;;12.20;99.90;;;;;;4967946;28;20052;-82
2022/10/13 07:26:58;;;;;;;0.50;0.50;;;12.20;99.90;;;;;;4970243;28;20032;-80
2022/10/13 07:29:25;;;;;;;0.50;0.50;;;12.30;99.90;;;;;;5001946;28;20074;-83
2022/10/13 07:31:51;;;;;;;0.50;0.50;;;12.40;99.90;;;;;;4952756;28;20052;-83
2022/10/13 07:34:16;;;;;;;0.50;0.50;;;12.40;99.90;;;;;;4983178;28;20088;-81
2022/10/13 07:36:42;;;;;;;0.50;0.50;;;12.50;99.90;;;;;;4998679;28;20056;-82
2022/10/13 07:39:09;;;;;;;0.50;0.50;;;12.50;99.90;;;;;;4966794;28;20557;-81
2022/10/13 07:41:35;;;;;;;0.50;0.50;;;12.50;99.90;;;;;;4980118;28;20513;-80
2022/10/13 07:44:01;;;;;;;0.50;0.50;;;12.60;99.90;;;;;;4982727;28;20577;-81
2022/10/13 07:46:27;;;;;;;0.50;0.50;;;12.60;99.90;;;;;;4983301;28;20843;-82
2022/10/13 07:48:53;;;;;;;0.50;0.50;;;12.70;99.90;;;;;;4987173;28;20438;-83
2022/10/13 07:51:21;;;;;;;0.50;0.50;;;12.80;99.90;;;;;;5000215;28;20142;-80
2022/10/13 07:53:49;;;;;;;0.50;0.50;;;12.80;99.90;;;;;;5002218;28;20052;-78
2022/10/13 07:56:16;;;;;;;0.50;0.50;;;12.80;99.90;;;;;;4981822;28;20447;-82
2022/10/13 07:58:44;;;;;;;0.50;0.50;;;12.90;99.90;;;;;;5004506;28;20052;-82
2022/10/13 08:01:11;;;;;;;0.50;0.50;;;13.00;99.90;;;;;;5003020;28;20048;-83
2022/10/13 08:03:38;;;;;;;0.50;0.50;;;13.00;99.90;;;;;;4976091;28;20052;-80
2022/10/13 08:06:05;;;;;;;0.50;0.50;;;13.10;99.90;;;;;;4991556;28;20438;-84
2022/10/13 08:08:31;;;;;;;0.50;0.50;;;13.20;99.90;;;;;;4987018;28;20417;-82
2022/10/13 08:11:05;;;;;;;0.50;0.50;;;13.20;99.90;;;;;;4964426;28;21216;-83
2022/10/13 08:13:32;;;;;;;0.50;0.50;;;13.30;99.90;;;;;;4960055;28;20421;-81
2022/10/13 08:16:01;;;;;;;0.50;0.50;;;13.40;99.90;;;;;;4983983;28;20048;-81
2022/10/13 08:18:50;;;;;;;0.50;0.50;;;13.40;99.90;;;;;;5001166;28;20362;-85
2022/10/13 08:21:23;;;;;;;0.60;0.60;;;13.40;99.90;;;;;;4993215;28;20465;-84
2022/10/13 08:23:50;;;;;;;0.50;0.50;;;13.40;99.90;;;;;;5011709;28;20175;-84
2022/10/13 08:26:40;;;;;;;0.50;0.50;;;13.50;99.90;;;;;;4994839;28;20040;-88
2022/10/13 08:29:13;;;;;;;0.50;0.50;;;13.60;99.90;;;;;;4979079;28;20987;-86
2022/10/13 08:31:40;;;;;;;0.50;0.50;;;13.80;99.90;;;;;;4983532;28;20059;-84
2022/10/13 08:34:06;;;;;;;0.50;0.50;;;13.90;99.90;;;;;;4994953;28;20039;-86
2022/10/13 08:36:42;;;;;;;0.50;0.50;;;14.20;99.90;;;;;;4983774;28;20076;-86
2022/10/13 08:39:40;;;;;;;0.50;0.50;;;14.30;99.90;;;;;;5012899;28;20048;-85
2022/10/13 08:42:16;;;;;;;0.50;0.50;;;14.50;99.90;;;;;;4964411;28;20859;-85
2022/10/13 08:44:51;;;;;;;0.50;0.50;;;14.50;99.90;;;;;;4987227;28;20048;-82
2022/10/13 08:47:32;;;;;;;0.50;0.50;;;14.40;99.90;;;;;;4988970;28;20126;-84
2022/10/13 08:50:01;;;;;;;0.50;0.50;;;14.20;99.90;;;;;;4992555;28;20047;-83
2022/10/13 08:52:42;;;;;;;0.50;0.50;;;14.10;99.90;;;;;;4990896;28;20056;-83
2022/10/13 08:55:27;;;;;;;0.60;0.60;;;14.00;99.90;;;;;;4987879;28;20941;-85
2022/10/13 08:57:53;;;;;;;0.50;0.50;;;14.00;99.90;;;;;;4988934;28;20040;-85
2022/10/13 09:00:19;;;;;;;0.50;0.50;;;14.00;99.90;;;;;;4982568;28;20428;-79
2022/10/13 09:02:45;;;;;;;0.50;0.50;;;14.00;99.90;;;;;;5007144;28;20039;-81
2022/10/13 09:05:48;;;;;;;0.50;0.50;;;14.00;99.90;;;;;;5003338;28;20047;-86
2022/10/13 09:08:19;;;;;;;0.50;0.50;;;14.00;99.90;;;;;;4941939;28;20060;-86
2022/10/13 09:10:49;;;;;;;0.50;0.50;;;13.90;99.90;;;;;;4986712;28;20051;-82
2022/10/13 09:13:15;;;;;;;0.50;0.50;;;13.90;99.90;;;;;;4972532;28;20051;-83
2022/10/13 09:15:46;;;;;;;0.50;0.50;;;13.80;99.90;;;;;;4996373;28;20422;-85
2022/10/13 09:18:13;;;;;;;0.50;0.50;;;13.90;99.90;;;;;;4969918;28;20753;-83
2022/10/13 09:20:39;;;;;;;0.50;0.50;;;13.90;99.90;;;;;;4994680;28;20055;-85
2022/10/13 09:23:26;;;;;;;0.50;0.50;;;13.90;99.90;;;;;;4991824;28;20560;-86
2022/10/13 09:25:54;;;;;;;0.50;0.50;;;13.90;99.90;;;;;;4985441;28;20113;-81
2022/10/13 09:28:30;;;;;;;0.50;0.50;;;14.00;99.90;;;;;;5011117;28;20047;-83
2022/10/13 09:31:14;;;;;;;0.50;0.50;;;14.10;99.90;;;;;;4997163;28;20052;-83
2022/10/13 09:34:07;;;;;;;0.50;0.50;;;14.30;99.90;;;;;;5006837;28;20066;-85
2022/10/13 09:36:35;;;;;;;0.50;0.50;;;14.40;99.90;;;;;;4988894;28;20055;-85
2022/10/13 09:39:16;;;;;;;0.50;0.50;;;14.60;99.90;;;;;;4992249;28;20055;-87
2022/10/13 09:41:45;;;;;;;0.50;0.50;;;14.70;99.90;;;;;;4981963;28;20047;-82
2022/10/13 09:44:25;;;;;;;0.50;0.50;;;14.80;99.90;;;;;;4990761;28;20499;-82
2022/10/13 09:46:56;;;;;;;0.50;0.50;;;15.00;99.90;;;;;;4989349;28;20117;-85
2022/10/13 09:49:42;;;;;;;0.50;0.50;;;15.20;99.90;;;;;;4992408;28;20056;-88
2022/10/13 09:52:11;;;;;;;0.50;0.50;;;15.30;99.90;;;;;;5018381;28;20458;-85
2022/10/13 09:54:52;;;;;;;0.50;0.50;;;15.40;99.90;;;;;;4975492;28;20421;-88
2022/10/13 09:57:42;;;;;;;0.50;0.50;;;15.40;99.90;;;;;;4982257;28;20059;-86
2022/10/13 10:00:22;;;;;;;0.50;0.50;;;15.80;99.90;;;;;;4974330;28;20055;-85
2022/10/13 10:03:11;;;;;;;0.50;0.50;;;15.80;99.90;;;;;;4968300;28;20587;-85
2022/10/13 10:06:02;;;;;;;0.50;0.50;;;15.80;99.90;;;;;;4995159;28;20484;-86
2022/10/13 10:08:50;;;;;;;0.50;0.50;;;16.00;99.90;;;;;;4979695;28;20488;-86
2022/10/13 10:11:28;;;;;;;0.50;0.50;;;16.10;99.90;;;;;;4985691;28;20058;-81
2022/10/13 10:13:55;;;;;;;0.40;0.40;;;16.20;99.90;;;;;;4987039;28;20139;-83
2022/10/13 10:16:51;;;;;;;0.50;0.50;;;16.10;99.90;;;;;;5007645;28;20493;-83
2022/10/13 10:19:28;;;;;;;0.40;0.40;;;16.00;99.90;;;;;;4974132;28;20075;-89
2022/10/13 10:22:07;;;;;;;0.50;0.50;;;16.10;99.90;;;;;;4997000;28;20048;-82
2022/10/13 10:24:36;;;;;;;0.40;0.40;;;16.10;99.90;;;;;;5016332;28;20051;-86
2022/10/13 10:27:28;;;;;;;0.50;0.50;;;16.10;99.90;;;;;;4980998;28;20643;-84
2022/10/13 10:30:01;;;;;;;0.50;0.50;;;16.10;99.90;;;;;;5017989;28;20047;-85
2022/10/13 10:32:49;;;;;;;0.50;0.50;;;16.00;99.90;;;;;;5000181;28;20460;-86
2022/10/13 10:35:44;;;;;;;0.50;0.50;;;15.90;99.90;;;;;;5020587;28;20132;-85
2022/10/13 10:38:25;;;;;;;;;;;15.90;99.90;;;;;;4997860;28;20059;-84
2022/10/13 10:40:50;;;;;;;0.40;0.40;;;15.90;99.90;;;;;;4998687;28;19923;-85
2022/10/13 10:43:31;;;;;;;0.50;0.50;;;15.70;99.90;;;;;;4999539;28;20499;-85
2022/10/13 10:45:59;;;;;;;0.40;0.40;;;15.60;99.90;;;;;;5001934;28;20075;-85
2022/10/13 10:48:34;;;;;;;0.40;0.40;;;15.40;99.90;;;;;;5002608;28;20051;-84
2022/10/13 10:51:00;;;;;;;0.50;0.50;;;15.50;99.90;;;;;;4997589;28;20087;-86
2022/10/13 10:54:00;;;;;;;0.40;0.40;;;15.40;99.90;;;;;;4991282;28;20064;-85
2022/10/13 10:56:50;;;;;;;0.50;0.50;;;15.40;99.90;;;;;;4997131;28;20305;-82
2022/10/13 10:59:39;;;;;;;0.50;0.50;;;15.30;99.90;;;;;;4980627;28;20083;-84
2022/10/13 11:02:23;;;;;;;0.43;0.43;;;15.30;99.90;;;;;;4995953;28;20400;-85
2022/10/13 11:05:00;;;;;;;0.50;0.50;;;15.30;99.90;;;;;;4997539;28;20349;-87
2022/10/13 11:07:29;;;;;;;0.40;0.40;;;15.40;99.90;;;;;;4998436;28;20591;-86
2022/10/13 11:09:58;;;;;;;0.45;0.45;;;15.40;99.90;;;;;;4968595;28;20051;-87
2022/10/13 11:12:45;;;;;;;0.50;0.50;;;15.40;99.90;;;;;;5012018;28;20067;-85
2022/10/13 11:15:25;;;;;;;0.50;0.50;;;15.50;99.90;;;;;;4985034;28;20908;-84
2022/10/13 11:17:57;;;;;;;0.50;0.50;;;15.60;99.90;;;;;;4986317;28;20878;-86
2022/10/13 11:20:28;;;;;;;0.40;0.40;;;15.60;99.90;;;;;;4998114;28;20211;-85
2022/10/13 11:23:00;;;;;;;0.45;0.45;;;15.70;99.90;;;;;;4993660;28;20126;-84
2022/10/13 11:25:42;;;;;;;0.50;0.50;;;15.80;99.90;;;;;;4993586;28;20044;-86
2022/10/13 11:28:25;;;;;;;0.40;0.40;;;15.80;99.90;;;;;;4977486;28;20040;-83
2022/10/13 11:31:24;;;;;;;0.43;0.43;;;15.80;99.90;;;;;;4981426;28;20044;-83
2022/10/13 11:34:00;;;;;;;0.50;0.50;;;15.70;99.90;;;;;;4992898;28;20052;-84
2022/10/13 11:37:14;;;;;;;0.40;0.40;;;15.70;99.90;;;;;;4988514;28;20451;-87
2022/10/13 11:40:03;;;;;;;0.40;0.40;;;15.70;99.90;;;;;;5008039;28;20052;-86
2022/10/13 11:42:51;;;;;;;0.50;0.50;;;15.70;99.90;;;;;;4988144;28;20047;-83
2022/10/13 11:45:58;;;;;;;0.50;0.50;;;15.70;99.90;;;;;;5009887;28;20782;-84
2022/10/13 11:48:43;;;;;;;0.50;0.50;;;15.70;99.90;;;;;;4949991;28;20423;-85
2022/10/13 11:51:34;;;;;;;0.50;0.50;;;15.80;99.90;;;;;;4993313;28;20063;-85
2022/10/13 11:54:22;;;;;;;0.50;0.50;;;15.70;99.90;;;;;;4979722;28;20048;-83
2022/10/13 11:57:18;;;;;;;0.50;0.50;;;15.70;99.90;;;;;;4976454;28;20182;-83
2022/10/13 11:59:54;;;;;;;0.50;0.50;;;15.70;99.90;;;;;;4981487;28;20105;-85
2022/10/13 12:02:25;;;;;;;0.50;0.50;;;15.50;99.90;;;;;;4975622;28;20191;-81
2022/10/13 12:05:27;;;;;;;0.40;0.40;;;15.30;99.90;;;;;;4990100;28;20410;-85
2022/10/13 12:08:05;;;;;;;0.50;0.50;;;15.20;99.90;;;;;;4987933;28;20232;-87
2022/10/13 12:10:43;;;;;;;0.40;0.40;;;15.10;99.90;;;;;;4994858;28;20414;-85
2022/10/13 12:13:30;;;;;;;0.50;0.50;;;15.00;99.90;;;;;;4979958;28;20489;-86
2022/10/13 12:16:14;;;;;;;0.50;0.50;;;14.80;99.90;;;;;;4998792;28;20963;-87
2022/10/13 12:19:21;;;;;;;0.50;0.50;;;14.80;99.90;;;;;;5005860;28;20048;-87
2022/10/13 12:21:58;;;;;;;0.50;0.50;;;14.90;99.90;;;;;;5005258;28;20501;-87
2022/10/13 12:24:28;;;;;;;0.50;0.50;;;14.70;99.90;;;;;;5002565;28;20082;-88
2022/10/13 12:27:22;;;;;;;0.50;0.50;;;14.70;99.90;;;;;;5006150;28;20048;-87
2022/10/13 12:29:55;;;;;;;0.50;0.50;;;14.80;99.90;;;;;;4997557;28;20052;-86
2022/10/13 12:32:44;;;;;;;0.50;0.50;;;14.80;99.90;;;;;;4999583;28;20693;-86
2022/10/13 12:35:46;;;;;;;0.50;0.50;;;14.70;99.90;;;;;;5001233;28;20058;-86
2022/10/13 12:38:24;;;;;;;0.50;0.50;;;14.90;99.90;;;;;;4967189;28;20048;-87
2022/10/13 12:40:53;;;;;;;0.50;0.50;;;15.00;99.90;;;;;;4985093;28;20047;-86
2022/10/13 12:43:31;;;;;;;0.50;0.50;;;15.00;99.90;;;;;;4981584;28;20052;-86
2022/10/13 12:45:57;;;;;;;0.50;0.50;;;15.10;99.90;;;;;;4979007;28;20095;-86
2022/10/13 12:48:52;;;;;;;0.93;0.93;;;15.10;99.90;;;;;;4981273;28;20458;-85
2022/10/13 12:51:55;;;;;;;0.50;0.50;;;15.10;99.90;;;;;;4989893;28;20497;-87
2022/10/13 12:55:00;;;;;;;0.50;0.50;;;15.10;99.90;;;;;;4998736;28;20047;-87
2022/10/13 12:58:06;;;;;;;0.50;0.50;;;15.10;99.90;;;;;;4970684;28;20079;-85
2022/10/13 13:01:14;;;;;;;0.50;0.50;;;15.00;99.90;;;;;;5000445;28;20378;-86
2022/10/13 13:03:57;;;;;;;0.50;0.50;;;15.10;99.90;;;;;;4982284;28;20094;-85
2022/10/13 13:07:00;;;;;;;;;;;;;;;;;;;;;
2022/10/13 13:09:41;;;;;;;0.50;0.50;;;15.10;99.90;;;;;;4997235;28;20055;-86
2022/10/13 13:12:25;;;;;;;0.50;0.50;;;15.10;99.90;;;;;;5011223;28;20127;-84
2022/10/13 13:14:53;;;;;;;0.50;0.50;;;15.00;99.90;;;;;;4968850;28;20052;-85
2022/10/13 13:17:29;;;;;;;0.50;0.50;;;15.10;99.90;;;;;;4992892;28;20497;-84
2022/10/13 13:19:57;;;;;;;0.50;0.50;;;15.10;99.90;;;;;;4989877;28;20570;-83
2022/10/13 13:22:25;;;;;;;0.50;0.50;;;15.20;99.90;;;;;;4971314;28;20503;-84